sensor_id;sensor_type;location;lat;lon;timestamp;temperature;humidity
62998;DHT22;55949;52.590;7.330;2023-04-25T00:00:25;7.70;99.90
62998;DHT22;55949;52.590;7.330;2023-04-25T00:01:26;7.60;99.90
62998;DHT22;55949;52.590;7.330;2023-04-25T00:02:27;7.70;99.90
62998;DHT22;55949;52.590;7.330;2023-04-25T00:03:28;7.50;99.90
62998;DHT22;55949;52.590;7.330;2023-04-25T00:04:29;7.50;99.90
62998;DHT22;55949;52.590;7.330;2023-04-25T00:05:30;7.50;99.90
62998;DHT22;55949;52.590;7.330;2023-04-25T00:06:34;7.60;99.90
62998;DHT22;55949;52.590;7.330;2023-04-25T00:07:36;7.60;99.90
62998;DHT22;55949;52.590;7.330;2023-04-25T00:08:37;7.60;99.90
62998;DHT22;55949;52.590;7.330;2023-04-25T00:09:38;7.60;99.90
62998;DHT22;55949;52.590;7.330;2023-04-25T00:10:38;7.60;99.90
62998;DHT22;55949;52.590;7.330;2023-04-25T00:11:40;7.60;99.90
62998;DHT22;55949;52.590;7.330;2023-04-25T00:12:41;7.60;99.90
62998;DHT22;55949;52.590;7.330;2023-04-25T00:13:42;7.60;99.90
62998;DHT22;55949;52.590;7.330;2023-04-25T00:14:43;7.50;99.90
62998;DHT22;55949;52.590;7.330;2023-04-25T00:15:44;7.50;99.90
62998;DHT22;55949;52.590;7.330;2023-04-25T00:16:46;7.60;99.90
62998;DHT22;55949;52.590;7.330;2023-04-25T00:17:48;7.50;99.90
62998;DHT22;55949;52.590;7.330;2023-04-25T00:18:49;7.60;99.90
62998;DHT22;55949;52.590;7.330;2023-04-25T00:19:54;7.60;99.90
62998;DHT22;55949;52.590;7.330;2023-04-25T00:20:55;7.50;99.90
62998;DHT22;55949;52.590;7.330;2023-04-25T00:21:56;7.50;99.90
62998;DHT22;55949;52.590;7.330;2023-04-25T00:22:56;7.50;99.90
62998;DHT22;55949;52.590;7.330;2023-04-25T00:23:57;7.50;99.90
62998;DHT22;55949;52.590;7.330;2023-04-25T00:24:58;7.40;99.90
62998;DHT22;55949;52.590;7.330;2023-04-25T00:26:00;7.40;99.90
62998;DHT22;55949;52.590;7.330;2023-04-25T00:27:01;7.30;99.90
62998;DHT22;55949;52.590;7.330;2023-04-25T00:28:02;7.20;99.90
62998;DHT22;55949;52.590;7.330;2023-04-25T00:29:03;7.20;99.90
62998;DHT22;55949;52.590;7.330;2023-04-25T00:30:04;7.20;99.90
62998;DHT22;55949;52.590;7.330;2023-04-25T00:31:05;7.20;99.90
62998;DHT22;55949;52.590;7.330;2023-04-25T00:32:05;7.20;99.90
62998;DHT22;55949;52.590;7.330;2023-04-25T00:33:06;7.20;99.90
62998;DHT22;55949;52.590;7.330;2023-04-25T00:34:07;7.30;99.90
62998;DHT22;55949;52.590;7.330;2023-04-25T00:35:09;7.30;99.90
62998;DHT22;55949;52.590;7.330;2023-04-25T00:36:10;7.30;99.90
62998;DHT22;55949;52.590;7.330;2023-04-25T00:37:11;7.30;99.90
62998;DHT22;55949;52.590;7.330;2023-04-25T00:38:13;7.20;99.90
62998;DHT22;55949;52.590;7.330;2023-04-25T00:39:13;7.20;99.90
62998;DHT22;55949;52.590;7.330;2023-04-25T00:40:14;7.30;99.90
62998;DHT22;55949;52.590;7.330;2023-04-25T00:41:15;7.30;99.90
62998;DHT22;55949;52.590;7.330;2023-04-25T00:42:16;7.20;99.90
62998;DHT22;55949;52.590;7.330;2023-04-25T00:43:17;7.20;99.90
62998;DHT22;55949;52.590;7.330;2023-04-25T00:44:17;7.20;99.90
62998;DHT22;55949;52.590;7.330;2023-04-25T00:45:19;7.20;99.90
62998;DHT22;55949;52.590;7.330;2023-04-25T00:46:20;7.20;99.90
62998;DHT22;55949;52.590;7.330;2023-04-25T00:47:21;7.30;99.90
62998;DHT22;55949;52.590;7.330;2023-04-25T00:48:22;7.20;99.90
62998;DHT22;55949;52.590;7.330;2023-04-25T00:49:23;7.20;99.90
62998;DHT22;55949;52.590;7.330;2023-04-25T00:50:24;7.20;99.90
62998;DHT22;55949;52.590;7.330;2023-04-25T00:51:25;7.20;99.90
62998;DHT22;55949;52.590;7.330;2023-04-25T00:52:27;7.20;99.90
62998;DHT22;55949;52.590;7.330;2023-04-25T00:53:28;7.20;99.90
62998;DHT22;55949;52.590;7.330;2023-04-25T00:54:29;7.30;99.90
62998;DHT22;55949;52.590;7.330;2023-04-25T00:55:31;7.20;99.90
62998;DHT22;55949;52.590;7.330;2023-04-25T00:56:32;7.20;99.90
62998;DHT22;55949;52.590;7.330;2023-04-25T00:57:33;7.20;99.90
62998;DHT22;55949;52.590;7.330;2023-04-25T00:58:34;7.20;99.90
62998;DHT22;55949;52.590;7.330;2023-04-25T00:59:36;7.20;99.90
62998;DHT22;55949;52.590;7.330;2023-04-25T01:00:38;7.20;99.90
62998;DHT22;55949;52.590;7.330;2023-04-25T01:01:39;7.20;99.90
62998;DHT22;55949;52.590;7.330;2023-04-25T01:02:41;7.20;99.90
62998;DHT22;55949;52.590;7.330;2023-04-25T01:03:42;7.30;99.90
62998;DHT22;55949;52.590;7.330;2023-04-25T01:04:45;7.30;99.90
62998;DHT22;55949;52.590;7.330;2023-04-25T01:05:46;7.40;99.90
62998;DHT22;55949;52.590;7.330;2023-04-25T01:06:47;7.30;99.90
62998;DHT22;55949;52.590;7.330;2023-04-25T01:07:48;7.30;99.90
62998;DHT22;55949;52.590;7.330;2023-04-25T01:08:50;7.30;99.90
62998;DHT22;55949;52.590;7.330;2023-04-25T01:09:52;7.40;99.90
62998;DHT22;55949;52.590;7.330;2023-04-25T01:10:53;7.40;99.90
62998;DHT22;55949;52.590;7.330;2023-04-25T01:11:53;7.30;99.90
62998;DHT22;55949;52.590;7.330;2023-04-25T01:12:54;7.30;99.90
62998;DHT22;55949;52.590;7.330;2023-04-25T01:13:55;7.20;99.90
62998;DHT22;55949;52.590;7.330;2023-04-25T01:14:56;7.20;99.90
62998;DHT22;55949;52.590;7.330;2023-04-25T01:15:56;7.20;99.90
62998;DHT22;55949;52.590;7.330;2023-04-25T01:16:59;7.20;99.90
62998;DHT22;55949;52.590;7.330;2023-04-25T01:18:00;7.10;99.90
62998;DHT22;55949;52.590;7.330;2023-04-25T01:19:09;7.10;99.90
62998;DHT22;55949;52.590;7.330;2023-04-25T01:20:14;7.10;99.90
62998;DHT22;55949;52.590;7.330;2023-04-25T01:21:14;7.10;99.90
62998;DHT22;55949;52.590;7.330;2023-04-25T01:22:16;7.00;99.90
62998;DHT22;55949;52.590;7.330;2023-04-25T01:23:18;7.10;99.90
62998;DHT22;55949;52.590;7.330;2023-04-25T01:24:19;7.00;99.90
62998;DHT22;55949;52.590;7.330;2023-04-25T01:25:19;7.10;99.90
62998;DHT22;55949;52.590;7.330;2023-04-25T01:26:21;7.10;99.90
62998;DHT22;55949;52.590;7.330;2023-04-25T01:27:22;7.10;99.90
62998;DHT22;55949;52.590;7.330;2023-04-25T01:28:23;7.00;99.90
62998;DHT22;55949;52.590;7.330;2023-04-25T01:29:24;7.00;99.90
62998;DHT22;55949;52.590;7.330;2023-04-25T01:30:26;7.00;99.90
62998;DHT22;55949;52.590;7.330;2023-04-25T01:31:28;7.00;99.90
62998;DHT22;55949;52.590;7.330;2023-04-25T01:32:30;7.00;99.90
62998;DHT22;55949;52.590;7.330;2023-04-25T01:33:38;7.10;99.90
62998;DHT22;55949;52.590;7.330;2023-04-25T01:34:39;7.10;99.90
62998;DHT22;55949;52.590;7.330;2023-04-25T01:35:40;7.10;99.90
62998;DHT22;55949;52.590;7.330;2023-04-25T01:36:41;7.10;99.90
62998;DHT22;55949;52.590;7.330;2023-04-25T01:37:42;7.10;99.90
62998;DHT22;55949;52.590;7.330;2023-04-25T01:38:43;7.10;99.90
62998;DHT22;55949;52.590;7.330;2023-04-25T01:39:46;7.10;99.90
62998;DHT22;55949;52.590;7.330;2023-04-25T01:40:49;6.90;99.90
62998;DHT22;55949;52.590;7.330;2023-04-25T01:41:51;6.90;99.90
62998;DHT22;55949;52.590;7.330;2023-04-25T01:42:52;6.90;99.90
62998;DHT22;55949;52.590;7.330;2023-04-25T01:43:53;7.00;99.90
62998;DHT22;55949;52.590;7.330;2023-04-25T01:44:54;7.10;99.90
62998;DHT22;55949;52.590;7.330;2023-04-25T01:45:55;7.10;99.90
62998;DHT22;55949;52.590;7.330;2023-04-25T01:46:57;7.10;99.90
62998;DHT22;55949;52.590;7.330;2023-04-25T01:47:58;7.00;99.90
62998;DHT22;55949;52.590;7.330;2023-04-25T01:49:00;7.00;99.90
62998;DHT22;55949;52.590;7.330;2023-04-25T01:50:02;7.00;99.90
62998;DHT22;55949;52.590;7.330;2023-04-25T01:51:03;7.00;99.90
62998;DHT22;55949;52.590;7.330;2023-04-25T01:52:04;7.00;99.90
62998;DHT22;55949;52.590;7.330;2023-04-25T01:53:05;7.10;99.90
62998;DHT22;55949;52.590;7.330;2023-04-25T01:54:06;7.20;99.90
62998;DHT22;55949;52.590;7.330;2023-04-25T01:55:08;6.90;99.90
62998;DHT22;55949;52.590;7.330;2023-04-25T01:56:08;6.90;99.90
62998;DHT22;55949;52.590;7.330;2023-04-25T01:57:11;6.70;99.90
62998;DHT22;55949;52.590;7.330;2023-04-25T01:58:12;6.70;99.90
62998;DHT22;55949;52.590;7.330;2023-04-25T01:59:13;6.50;99.90
62998;DHT22;55949;52.590;7.330;2023-04-25T02:00:14;6.40;99.90
62998;DHT22;55949;52.590;7.330;2023-04-25T02:01:15;6.40;99.90
62998;DHT22;55949;52.590;7.330;2023-04-25T02:02:15;6.40;99.90
62998;DHT22;55949;52.590;7.330;2023-04-25T02:03:16;6.40;99.90
62998;DHT22;55949;52.590;7.330;2023-04-25T02:04:17;6.20;99.90
62998;DHT22;55949;52.590;7.330;2023-04-25T02:05:17;6.20;99.90
62998;DHT22;55949;52.590;7.330;2023-04-25T02:06:18;6.20;99.90
62998;DHT22;55949;52.590;7.330;2023-04-25T02:07:19;6.10;99.90
62998;DHT22;55949;52.590;7.330;2023-04-25T02:08:19;6.00;99.90
62998;DHT22;55949;52.590;7.330;2023-04-25T02:09:20;6.00;99.90
62998;DHT22;55949;52.590;7.330;2023-04-25T02:10:21;5.80;99.90
62998;DHT22;55949;52.590;7.330;2023-04-25T02:11:22;5.80;99.90
62998;DHT22;55949;52.590;7.330;2023-04-25T02:12:22;5.90;99.90
62998;DHT22;55949;52.590;7.330;2023-04-25T02:13:23;5.80;99.90
62998;DHT22;55949;52.590;7.330;2023-04-25T02:14:24;5.80;99.90
62998;DHT22;55949;52.590;7.330;2023-04-25T02:15:24;5.90;99.90
62998;DHT22;55949;52.590;7.330;2023-04-25T02:16:25;5.90;99.90
62998;DHT22;55949;52.590;7.330;2023-04-25T02:17:26;5.90;99.90
62998;DHT22;55949;52.590;7.330;2023-04-25T02:18:26;5.70;99.90
62998;DHT22;55949;52.590;7.330;2023-04-25T02:19:27;5.90;99.90
62998;DHT22;55949;52.590;7.330;2023-04-25T02:20:29;5.80;99.90
62998;DHT22;55949;52.590;7.330;2023-04-25T02:21:31;5.70;99.90
62998;DHT22;55949;52.590;7.330;2023-04-25T02:22:31;5.70;99.90
62998;DHT22;55949;52.590;7.330;2023-04-25T02:23:34;5.70;99.90
62998;DHT22;55949;52.590;7.330;2023-04-25T02:24:35;5.70;99.90
62998;DHT22;55949;52.590;7.330;2023-04-25T02:25:35;5.70;99.90
62998;DHT22;55949;52.590;7.330;2023-04-25T02:26:36;5.50;99.90
62998;DHT22;55949;52.590;7.330;2023-04-25T02:27:37;5.50;99.90
62998;DHT22;55949;52.590;7.330;2023-04-25T02:28:38;5.40;99.90
62998;DHT22;55949;52.590;7.330;2023-04-25T02:29:38;5.40;99.90
62998;DHT22;55949;52.590;7.330;2023-04-25T02:30:39;5.50;99.90
62998;DHT22;55949;52.590;7.330;2023-04-25T02:31:40;5.60;99.90
62998;DHT22;55949;52.590;7.330;2023-04-25T02:32:41;5.70;99.90
62998;DHT22;55949;52.590;7.330;2023-04-25T02:33:42;5.60;99.90
62998;DHT22;55949;52.590;7.330;2023-04-25T02:34:43;5.60;99.90
62998;DHT22;55949;52.590;7.330;2023-04-25T02:35:44;5.80;99.90
62998;DHT22;55949;52.590;7.330;2023-04-25T02:36:44;5.80;99.90
62998;DHT22;55949;52.590;7.330;2023-04-25T02:37:45;5.70;99.90
62998;DHT22;55949;52.590;7.330;2023-04-25T02:38:46;5.80;99.90
62998;DHT22;55949;52.590;7.330;2023-04-25T02:39:46;6.00;99.90
62998;DHT22;55949;52.590;7.330;2023-04-25T02:40:47;6.00;99.90
62998;DHT22;55949;52.590;7.330;2023-04-25T02:41:48;6.10;99.90
62998;DHT22;55949;52.590;7.330;2023-04-25T02:42:48;6.20;99.90
62998;DHT22;55949;52.590;7.330;2023-04-25T02:43:49;6.30;99.90
62998;DHT22;55949;52.590;7.330;2023-04-25T02:44:50;6.30;99.90
62998;DHT22;55949;52.590;7.330;2023-04-25T02:45:50;6.30;99.90
62998;DHT22;55949;52.590;7.330;2023-04-25T02:46:51;6.30;99.90
62998;DHT22;55949;52.590;7.330;2023-04-25T02:47:52;6.40;99.90
62998;DHT22;55949;52.590;7.330;2023-04-25T02:48:52;6.40;99.90
62998;DHT22;55949;52.590;7.330;2023-04-25T02:49:53;6.40;99.90
62998;DHT22;55949;52.590;7.330;2023-04-25T02:50:54;6.40;99.90
62998;DHT22;55949;52.590;7.330;2023-04-25T02:51:54;6.20;99.90
62998;DHT22;55949;52.590;7.330;2023-04-25T02:52:55;6.00;99.90
62998;DHT22;55949;52.590;7.330;2023-04-25T02:53:56;5.90;99.90
62998;DHT22;55949;52.590;7.330;2023-04-25T02:54:57;5.70;99.90
62998;DHT22;55949;52.590;7.330;2023-04-25T02:55:57;5.70;99.90
62998;DHT22;55949;52.590;7.330;2023-04-25T02:56:59;5.70;99.90
62998;DHT22;55949;52.590;7.330;2023-04-25T02:58:01;5.50;99.90
62998;DHT22;55949;52.590;7.330;2023-04-25T02:59:02;5.60;99.90
62998;DHT22;55949;52.590;7.330;2023-04-25T03:00:03;5.50;99.90
62998;DHT22;55949;52.590;7.330;2023-04-25T03:01:05;5.50;99.90
62998;DHT22;55949;52.590;7.330;2023-04-25T03:02:06;5.50;99.90
62998;DHT22;55949;52.590;7.330;2023-04-25T03:03:06;5.40;99.90
62998;DHT22;55949;52.590;7.330;2023-04-25T03:04:07;5.40;99.90
62998;DHT22;55949;52.590;7.330;2023-04-25T03:05:08;5.40;99.90
62998;DHT22;55949;52.590;7.330;2023-04-25T03:06:09;5.30;99.90
62998;DHT22;55949;52.590;7.330;2023-04-25T03:07:10;5.40;99.90
62998;DHT22;55949;52.590;7.330;2023-04-25T03:08:11;5.40;99.90
62998;DHT22;55949;52.590;7.330;2023-04-25T03:09:12;5.50;99.90
62998;DHT22;55949;52.590;7.330;2023-04-25T03:10:12;5.50;99.90
62998;DHT22;55949;52.590;7.330;2023-04-25T03:11:13;5.50;99.90
62998;DHT22;55949;52.590;7.330;2023-04-25T03:12:15;5.50;99.90
62998;DHT22;55949;52.590;7.330;2023-04-25T03:13:16;5.50;99.90
62998;DHT22;55949;52.590;7.330;2023-04-25T03:14:16;5.50;99.90
62998;DHT22;55949;52.590;7.330;2023-04-25T03:15:17;5.70;99.90
62998;DHT22;55949;52.590;7.330;2023-04-25T03:16:18;5.70;99.90
62998;DHT22;55949;52.590;7.330;2023-04-25T03:17:18;5.50;99.90
62998;DHT22;55949;52.590;7.330;2023-04-25T03:18:19;5.50;99.90
62998;DHT22;55949;52.590;7.330;2023-04-25T03:19:20;5.50;99.90
62998;DHT22;55949;52.590;7.330;2023-04-25T03:20:20;5.50;99.90
62998;DHT22;55949;52.590;7.330;2023-04-25T03:21:21;5.40;99.90
62998;DHT22;55949;52.590;7.330;2023-04-25T03:22:22;5.50;99.90
62998;DHT22;55949;52.590;7.330;2023-04-25T03:23:23;5.40;99.90
62998;DHT22;55949;52.590;7.330;2023-04-25T03:24:23;5.40;99.90
62998;DHT22;55949;52.590;7.330;2023-04-25T03:25:24;5.50;99.90
62998;DHT22;55949;52.590;7.330;2023-04-25T03:26:25;5.50;99.90
62998;DHT22;55949;52.590;7.330;2023-04-25T03:27:26;5.60;99.90
62998;DHT22;55949;52.590;7.330;2023-04-25T03:28:27;5.50;99.90
62998;DHT22;55949;52.590;7.330;2023-04-25T03:29:28;5.50;99.90
62998;DHT22;55949;52.590;7.330;2023-04-25T03:30:29;5.50;99.90
62998;DHT22;55949;52.590;7.330;2023-04-25T03:31:30;5.50;99.90
62998;DHT22;55949;52.590;7.330;2023-04-25T03:32:31;5.50;99.90
62998;DHT22;55949;52.590;7.330;2023-04-25T03:33:32;5.60;99.90
62998;DHT22;55949;52.590;7.330;2023-04-25T03:34:33;5.60;99.90
62998;DHT22;55949;52.590;7.330;2023-04-25T03:35:33;5.70;99.90
62998;DHT22;55949;52.590;7.330;2023-04-25T03:36:34;5.70;99.90
62998;DHT22;55949;52.590;7.330;2023-04-25T03:37:35;5.60;99.90
62998;DHT22;55949;52.590;7.330;2023-04-25T03:38:36;5.50;99.90
62998;DHT22;55949;52.590;7.330;2023-04-25T03:39:36;5.50;99.90
62998;DHT22;55949;52.590;7.330;2023-04-25T03:40:38;5.60;99.90
62998;DHT22;55949;52.590;7.330;2023-04-25T03:41:38;5.50;99.90
62998;DHT22;55949;52.590;7.330;2023-04-25T03:42:39;5.50;99.90
62998;DHT22;55949;52.590;7.330;2023-04-25T03:43:40;5.50;99.90
62998;DHT22;55949;52.590;7.330;2023-04-25T03:44:40;5.50;99.90
62998;DHT22;55949;52.590;7.330;2023-04-25T03:45:41;5.50;99.90
62998;DHT22;55949;52.590;7.330;2023-04-25T03:46:41;5.50;99.90
62998;DHT22;55949;52.590;7.330;2023-04-25T03:47:42;5.60;99.90
62998;DHT22;55949;52.590;7.330;2023-04-25T03:48:43;5.60;99.90
62998;DHT22;55949;52.590;7.330;2023-04-25T03:49:43;5.60;99.90
62998;DHT22;55949;52.590;7.330;2023-04-25T03:50:44;5.50;99.90
62998;DHT22;55949;52.590;7.330;2023-04-25T03:51:45;5.40;99.90
62998;DHT22;55949;52.590;7.330;2023-04-25T03:52:46;5.30;99.90
62998;DHT22;55949;52.590;7.330;2023-04-25T03:53:47;5.40;99.90
62998;DHT22;55949;52.590;7.330;2023-04-25T03:54:48;5.40;99.90
62998;DHT22;55949;52.590;7.330;2023-04-25T03:55:48;5.50;99.90
62998;DHT22;55949;52.590;7.330;2023-04-25T03:56:49;5.40;99.90
62998;DHT22;55949;52.590;7.330;2023-04-25T03:57:50;5.40;99.90
62998;DHT22;55949;52.590;7.330;2023-04-25T03:58:50;5.40;99.90
62998;DHT22;55949;52.590;7.330;2023-04-25T03:59:51;5.50;99.90
62998;DHT22;55949;52.590;7.330;2023-04-25T04:00:52;5.50;99.90
62998;DHT22;55949;52.590;7.330;2023-04-25T04:01:53;5.40;99.90
62998;DHT22;55949;52.590;7.330;2023-04-25T04:02:53;5.40;99.90
62998;DHT22;55949;52.590;7.330;2023-04-25T04:03:54;5.40;99.90
62998;DHT22;55949;52.590;7.330;2023-04-25T04:04:55;5.50;99.90
62998;DHT22;55949;52.590;7.330;2023-04-25T04:05:57;5.50;99.90
62998;DHT22;55949;52.590;7.330;2023-04-25T04:06:58;5.60;99.90
62998;DHT22;55949;52.590;7.330;2023-04-25T04:07:58;5.60;99.90
62998;DHT22;55949;52.590;7.330;2023-04-25T04:08:59;5.50;99.90
62998;DHT22;55949;52.590;7.330;2023-04-25T04:10:00;5.60;99.90
62998;DHT22;55949;52.590;7.330;2023-04-25T04:11:00;5.60;99.90
62998;DHT22;55949;52.590;7.330;2023-04-25T04:12:01;5.50;99.90
62998;DHT22;55949;52.590;7.330;2023-04-25T04:13:02;5.50;99.90
62998;DHT22;55949;52.590;7.330;2023-04-25T04:14:06;5.40;99.90
62998;DHT22;55949;52.590;7.330;2023-04-25T04:15:08;5.50;99.90
62998;DHT22;55949;52.590;7.330;2023-04-25T04:16:10;5.60;99.90
62998;DHT22;55949;52.590;7.330;2023-04-25T04:17:10;5.50;99.90
62998;DHT22;55949;52.590;7.330;2023-04-25T04:18:11;5.40;99.90
62998;DHT22;55949;52.590;7.330;2023-04-25T04:19:12;5.40;99.90
62998;DHT22;55949;52.590;7.330;2023-04-25T04:20:12;5.40;99.90
62998;DHT22;55949;52.590;7.330;2023-04-25T04:21:13;5.40;99.90
62998;DHT22;55949;52.590;7.330;2023-04-25T04:22:14;5.40;99.90
62998;DHT22;55949;52.590;7.330;2023-04-25T04:23:15;5.40;99.90
62998;DHT22;55949;52.590;7.330;2023-04-25T04:24:15;5.50;99.90
62998;DHT22;55949;52.590;7.330;2023-04-25T04:25:17;5.50;99.90
62998;DHT22;55949;52.590;7.330;2023-04-25T04:26:18;5.50;99.90
62998;DHT22;55949;52.590;7.330;2023-04-25T04:27:19;5.60;99.90
62998;DHT22;55949;52.590;7.330;2023-04-25T04:28:20;5.50;99.90
62998;DHT22;55949;52.590;7.330;2023-04-25T04:29:22;5.40;99.90
62998;DHT22;55949;52.590;7.330;2023-04-25T04:30:24;5.40;99.90
62998;DHT22;55949;52.590;7.330;2023-04-25T04:31:24;5.50;99.90
62998;DHT22;55949;52.590;7.330;2023-04-25T04:32:25;5.60;99.90
62998;DHT22;55949;52.590;7.330;2023-04-25T04:33:26;5.50;99.90
62998;DHT22;55949;52.590;7.330;2023-04-25T04:34:26;5.60;99.90
62998;DHT22;55949;52.590;7.330;2023-04-25T04:35:27;5.60;99.90
62998;DHT22;55949;52.590;7.330;2023-04-25T04:36:28;5.60;99.90
62998;DHT22;55949;52.590;7.330;2023-04-25T04:37:29;5.50;99.90
62998;DHT22;55949;52.590;7.330;2023-04-25T04:38:30;5.50;99.90
62998;DHT22;55949;52.590;7.330;2023-04-25T04:39:31;5.40;99.90
62998;DHT22;55949;52.590;7.330;2023-04-25T04:40:32;5.40;99.90
62998;DHT22;55949;52.590;7.330;2023-04-25T04:41:33;5.40;99.90
62998;DHT22;55949;52.590;7.330;2023-04-25T04:42:33;5.40;99.90
62998;DHT22;55949;52.590;7.330;2023-04-25T04:43:34;5.50;99.90
62998;DHT22;55949;52.590;7.330;2023-04-25T04:44:34;5.60;99.90
62998;DHT22;55949;52.590;7.330;2023-04-25T04:45:36;5.70;99.90
62998;DHT22;55949;52.590;7.330;2023-04-25T04:46:38;5.60;99.90
62998;DHT22;55949;52.590;7.330;2023-04-25T04:47:41;5.60;99.90
62998;DHT22;55949;52.590;7.330;2023-04-25T04:48:41;5.80;99.90
62998;DHT22;55949;52.590;7.330;2023-04-25T04:49:43;5.80;99.90
62998;DHT22;55949;52.590;7.330;2023-04-25T04:50:45;5.80;99.90
62998;DHT22;55949;52.590;7.330;2023-04-25T04:51:46;5.70;99.90
62998;DHT22;55949;52.590;7.330;2023-04-25T04:52:47;5.70;99.90
62998;DHT22;55949;52.590;7.330;2023-04-25T04:53:48;5.70;99.90
62998;DHT22;55949;52.590;7.330;2023-04-25T04:54:48;5.80;99.90
62998;DHT22;55949;52.590;7.330;2023-04-25T04:55:49;5.80;99.90
62998;DHT22;55949;52.590;7.330;2023-04-25T04:56:50;5.70;99.90
62998;DHT22;55949;52.590;7.330;2023-04-25T04:57:52;5.60;99.90
62998;DHT22;55949;52.590;7.330;2023-04-25T04:58:53;5.70;99.90
62998;DHT22;55949;52.590;7.330;2023-04-25T04:59:54;5.70;99.90
62998;DHT22;55949;52.590;7.330;2023-04-25T05:00:54;5.90;99.90
62998;DHT22;55949;52.590;7.330;2023-04-25T05:01:55;5.80;99.90
62998;DHT22;55949;52.590;7.330;2023-04-25T05:02:56;5.80;99.90
62998;DHT22;55949;52.590;7.330;2023-04-25T05:03:57;5.90;99.90
62998;DHT22;55949;52.590;7.330;2023-04-25T05:05:00;5.90;99.90
62998;DHT22;55949;52.590;7.330;2023-04-25T05:06:01;6.10;99.90
62998;DHT22;55949;52.590;7.330;2023-04-25T05:07:02;6.00;99.90
62998;DHT22;55949;52.590;7.330;2023-04-25T05:08:03;5.80;99.90
62998;DHT22;55949;52.590;7.330;2023-04-25T05:09:04;5.70;99.90
62998;DHT22;55949;52.590;7.330;2023-04-25T05:10:05;5.80;99.90
62998;DHT22;55949;52.590;7.330;2023-04-25T05:11:06;5.70;99.90
62998;DHT22;55949;52.590;7.330;2023-04-25T05:12:07;5.70;99.90
62998;DHT22;55949;52.590;7.330;2023-04-25T05:13:07;5.60;99.90
62998;DHT22;55949;52.590;7.330;2023-04-25T05:14:08;5.70;99.90
62998;DHT22;55949;52.590;7.330;2023-04-25T05:15:09;5.70;99.90
62998;DHT22;55949;52.590;7.330;2023-04-25T05:16:10;5.80;99.90
62998;DHT22;55949;52.590;7.330;2023-04-25T05:17:11;5.70;99.90
62998;DHT22;55949;52.590;7.330;2023-04-25T05:18:11;5.80;99.90
62998;DHT22;55949;52.590;7.330;2023-04-25T05:19:12;6.00;99.90
62998;DHT22;55949;52.590;7.330;2023-04-25T05:20:13;6.00;99.90
62998;DHT22;55949;52.590;7.330;2023-04-25T05:21:14;5.90;99.90
62998;DHT22;55949;52.590;7.330;2023-04-25T05:22:15;5.90;99.90
62998;DHT22;55949;52.590;7.330;2023-04-25T05:23:16;5.80;99.90
62998;DHT22;55949;52.590;7.330;2023-04-25T05:24:17;5.80;99.90
62998;DHT22;55949;52.590;7.330;2023-04-25T05:25:17;5.80;99.90
62998;DHT22;55949;52.590;7.330;2023-04-25T05:26:19;5.80;99.90
62998;DHT22;55949;52.590;7.330;2023-04-25T05:27:20;5.70;99.90
62998;DHT22;55949;52.590;7.330;2023-04-25T05:28:21;5.70;99.90
62998;DHT22;55949;52.590;7.330;2023-04-25T05:29:22;5.70;99.90
62998;DHT22;55949;52.590;7.330;2023-04-25T05:30:24;5.70;99.90
62998;DHT22;55949;52.590;7.330;2023-04-25T05:31:25;5.80;99.90
62998;DHT22;55949;52.590;7.330;2023-04-25T05:32:27;5.70;99.90
62998;DHT22;55949;52.590;7.330;2023-04-25T05:33:28;5.80;99.90
62998;DHT22;55949;52.590;7.330;2023-04-25T05:34:29;5.70;99.90
62998;DHT22;55949;52.590;7.330;2023-04-25T05:35:30;5.70;99.90
62998;DHT22;55949;52.590;7.330;2023-04-25T05:36:31;5.80;99.90
62998;DHT22;55949;52.590;7.330;2023-04-25T05:37:33;5.80;99.90
62998;DHT22;55949;52.590;7.330;2023-04-25T05:38:33;5.90;99.90
62998;DHT22;55949;52.590;7.330;2023-04-25T05:39:34;5.90;99.90
62998;DHT22;55949;52.590;7.330;2023-04-25T05:40:35;5.90;99.90
62998;DHT22;55949;52.590;7.330;2023-04-25T05:41:36;6.00;99.90
62998;DHT22;55949;52.590;7.330;2023-04-25T05:42:37;6.00;99.90
62998;DHT22;55949;52.590;7.330;2023-04-25T05:43:38;5.80;99.90
62998;DHT22;55949;52.590;7.330;2023-04-25T05:44:38;5.80;99.90
62998;DHT22;55949;52.590;7.330;2023-04-25T05:45:39;5.80;99.90
62998;DHT22;55949;52.590;7.330;2023-04-25T05:46:41;5.70;99.90
62998;DHT22;55949;52.590;7.330;2023-04-25T05:47:42;5.60;99.90
62998;DHT22;55949;52.590;7.330;2023-04-25T05:48:43;5.70;99.90
62998;DHT22;55949;52.590;7.330;2023-04-25T05:49:44;5.80;99.90
62998;DHT22;55949;52.590;7.330;2023-04-25T05:50:44;5.70;99.90
62998;DHT22;55949;52.590;7.330;2023-04-25T05:51:45;5.80;99.90
62998;DHT22;55949;52.590;7.330;2023-04-25T05:52:46;5.90;99.90
62998;DHT22;55949;52.590;7.330;2023-04-25T05:53:47;6.00;99.90
62998;DHT22;55949;52.590;7.330;2023-04-25T05:54:48;6.00;99.90
62998;DHT22;55949;52.590;7.330;2023-04-25T05:55:48;6.00;99.90
62998;DHT22;55949;52.590;7.330;2023-04-25T05:56:49;6.10;99.90
62998;DHT22;55949;52.590;7.330;2023-04-25T05:57:52;6.30;99.90
62998;DHT22;55949;52.590;7.330;2023-04-25T05:58:53;6.50;99.90
62998;DHT22;55949;52.590;7.330;2023-04-25T05:59:54;6.60;99.90
62998;DHT22;55949;52.590;7.330;2023-04-25T06:00:55;6.80;99.90
62998;DHT22;55949;52.590;7.330;2023-04-25T06:01:58;6.90;99.90
62998;DHT22;55949;52.590;7.330;2023-04-25T06:03:01;6.60;99.90
62998;DHT22;55949;52.590;7.330;2023-04-25T06:04:03;6.60;99.90
62998;DHT22;55949;52.590;7.330;2023-04-25T06:05:04;6.70;99.90
62998;DHT22;55949;52.590;7.330;2023-04-25T06:06:05;6.90;99.90
62998;DHT22;55949;52.590;7.330;2023-04-25T06:07:07;6.90;99.90
62998;DHT22;55949;52.590;7.330;2023-04-25T06:08:08;7.00;99.90
62998;DHT22;55949;52.590;7.330;2023-04-25T06:09:12;6.80;99.90
62998;DHT22;55949;52.590;7.330;2023-04-25T06:10:13;6.80;99.90
62998;DHT22;55949;52.590;7.330;2023-04-25T06:11:15;7.00;99.90
62998;DHT22;55949;52.590;7.330;2023-04-25T06:12:17;7.00;99.90
62998;DHT22;55949;52.590;7.330;2023-04-25T06:13:17;7.00;99.90
62998;DHT22;55949;52.590;7.330;2023-04-25T06:14:19;7.00;99.90
62998;DHT22;55949;52.590;7.330;2023-04-25T06:15:21;6.90;99.90
62998;DHT22;55949;52.590;7.330;2023-04-25T06:16:23;6.70;99.90
62998;DHT22;55949;52.590;7.330;2023-04-25T06:17:26;6.80;99.90
62998;DHT22;55949;52.590;7.330;2023-04-25T06:18:27;7.00;99.90
62998;DHT22;55949;52.590;7.330;2023-04-25T06:19:28;6.90;99.90
62998;DHT22;55949;52.590;7.330;2023-04-25T06:20:30;6.90;99.90
62998;DHT22;55949;52.590;7.330;2023-04-25T06:21:32;7.00;99.90
62998;DHT22;55949;52.590;7.330;2023-04-25T06:22:34;7.10;99.90
62998;DHT22;55949;52.590;7.330;2023-04-25T06:23:36;6.70;99.90
62998;DHT22;55949;52.590;7.330;2023-04-25T06:24:39;6.80;99.90
62998;DHT22;55949;52.590;7.330;2023-04-25T06:25:40;6.80;99.90
62998;DHT22;55949;52.590;7.330;2023-04-25T06:26:41;6.80;99.90
62998;DHT22;55949;52.590;7.330;2023-04-25T06:27:42;6.80;99.90
62998;DHT22;55949;52.590;7.330;2023-04-25T06:28:43;6.70;99.90
62998;DHT22;55949;52.590;7.330;2023-04-25T06:29:43;6.60;99.90
62998;DHT22;55949;52.590;7.330;2023-04-25T06:30:44;6.70;99.90
62998;DHT22;55949;52.590;7.330;2023-04-25T06:31:47;6.70;99.90